createdAt,value
2022-10-04T00:54:33.284Z,1.60
2022-10-04T00:58:24.443Z,1.50
2022-10-04T01:02:12.275Z,1.90
2022-10-04T01:06:18.898Z,1.80
2022-10-04T01:10:11.878Z,2.00
2022-10-04T01:14:15.692Z,2.20
2022-10-04T01:18:01.981Z,1.90
2022-10-04T01:22:00.326Z,2.00
2022-10-04T01:25:53.833Z,2.30
2022-10-04T02:31:20.089Z,1.50
2022-10-04T02:35:05.618Z,1.50
2022-10-04T02:39:08.433Z,1.60
2022-10-04T02:43:04.159Z,1.50
2022-10-04T02:47:15.759Z,1.70
2022-10-04T02:51:12.682Z,1.50
2022-10-04T02:55:08.286Z,1.80
2022-10-04T02:58:52.962Z,2.20
2022-10-04T03:02:45.000Z,1.90
2022-10-04T03:06:45.550Z,2.30
2022-10-04T03:30:00.983Z,2.20
2022-10-04T03:33:53.499Z,2.50
2022-10-04T03:49:37.590Z,2.50
2022-10-04T03:53:33.540Z,2.10
2022-10-04T03:57:32.964Z,2.30
2022-10-04T04:01:26.384Z,2.40
2022-10-04T04:09:21.036Z,2.40
2022-10-04T04:13:21.762Z,2.80
2022-10-04T04:17:14.217Z,2.80
2022-10-04T04:21:07.475Z,3.40
2022-10-04T04:48:50.558Z,3.20
2022-10-04T04:52:43.925Z,2.60
2022-10-04T04:56:41.553Z,3.00
2022-10-04T05:08:53.067Z,2.60
2022-10-04T05:13:03.531Z,4.00
2022-10-04T05:16:55.879Z,4.50
2022-10-04T05:20:41.223Z,4.70
2022-10-04T06:06:59.095Z,2.50
2022-10-04T06:22:44.479Z,3.30
2022-10-04T06:26:36.742Z,3.80
2022-10-04T06:30:30.834Z,4.10
2022-10-04T06:34:43.574Z,3.10
2022-10-04T06:38:52.321Z,3.70
2022-10-04T06:43:09.491Z,3.00
2022-10-04T06:47:06.935Z,3.40
2022-10-04T06:51:02.000Z,2.70
2022-10-04T06:55:09.490Z,3.00
2022-10-04T06:59:00.064Z,3.10
2022-10-04T07:02:58.537Z,2.50
2022-10-04T07:06:50.621Z,2.60
2022-10-04T07:10:45.630Z,2.60
2022-10-04T07:14:39.260Z,2.90
2022-10-04T07:18:31.593Z,2.40
2022-10-04T07:22:24.535Z,2.70
2022-10-04T07:26:27.037Z,4.10
2022-10-04T08:09:26.307Z,1.70
2022-10-04T08:13:33.803Z,1.90
2022-10-04T08:17:27.726Z,5.30
2022-10-04T08:21:39.246Z,2.80
2022-10-04T08:25:40.042Z,2.00
2022-10-04T08:29:41.638Z,2.30
2022-10-04T08:33:55.234Z,1.60
2022-10-04T08:38:10.657Z,1.60
2022-10-04T08:41:58.699Z,1.40
2022-10-04T08:45:53.878Z,1.40
2022-10-04T08:49:47.725Z,4.10
2022-10-04T08:53:40.957Z,1.70
2022-10-04T08:57:32.079Z,2.10
2022-10-04T09:01:35.972Z,1.30
2022-10-04T09:05:52.983Z,2.50
2022-10-04T09:10:14.840Z,1.70
2022-10-04T09:14:05.895Z,2.20
2022-10-04T09:18:02.071Z,1.50
2022-10-04T09:21:58.558Z,1.90
2022-10-04T09:26:03.450Z,1.30
2022-10-04T09:30:04.090Z,1.10
2022-10-04T09:34:04.916Z,1.20
2022-10-04T09:37:59.148Z,1.10
2022-10-04T09:42:26.183Z,1.40
2022-10-04T09:46:18.323Z,1.40
2022-10-04T09:50:13.222Z,1.30
2022-10-04T09:54:19.459Z,1.10
2022-10-04T09:58:12.545Z,1.10
2022-10-04T10:02:05.093Z,1.00
2022-10-04T10:06:10.448Z,1.50
2022-10-04T10:10:12.560Z,1.30
2022-10-04T10:14:14.135Z,1.30
2022-10-04T10:18:31.440Z,1.10
2022-10-04T10:22:26.879Z,1.40
2022-10-04T10:26:26.689Z,1.10
2022-10-04T10:30:28.998Z,1.10
2022-10-04T10:34:19.755Z,1.30
2022-10-04T10:38:10.205Z,2.20
2022-10-04T10:42:01.648Z,1.30
2022-10-04T10:46:12.081Z,1.00
2022-10-04T10:50:17.138Z,1.20
2022-10-04T10:54:07.772Z,1.70
2022-10-04T10:58:12.723Z,1.50
2022-10-04T11:02:06.600Z,1.10
2022-10-04T11:06:08.089Z,1.10
2022-10-04T11:09:51.538Z,1.10
2022-10-04T11:13:46.477Z,1.20
2022-10-04T11:17:38.285Z,0.90
2022-10-04T11:21:27.243Z,1.20
2022-10-04T11:25:30.400Z,1.30
2022-10-04T11:29:42.357Z,1.00
2022-10-04T11:33:27.969Z,1.20
2022-10-04T11:37:47.592Z,0.80
2022-10-04T11:41:51.790Z,1.10
2022-10-04T11:45:45.281Z,1.50
2022-10-04T11:50:08.284Z,1.30
2022-10-04T11:53:59.778Z,0.90
2022-10-04T11:58:11.775Z,2.20
2022-10-04T12:02:06.011Z,1.70
2022-10-04T12:06:12.258Z,1.30
2022-10-04T12:10:15.534Z,1.20
2022-10-04T12:14:05.984Z,1.70
2022-10-04T12:18:19.399Z,1.60
2022-10-04T12:22:36.347Z,1.30
2022-10-04T12:29:54.210Z,2.00
2022-10-04T12:33:58.235Z,1.40
2022-10-04T12:37:55.817Z,1.00
2022-10-04T12:41:51.060Z,0.80
2022-10-04T12:45:58.151Z,1.30
2022-10-04T12:49:55.777Z,1.10
2022-10-04T12:53:48.900Z,0.60
2022-10-04T12:57:39.920Z,0.80
2022-10-04T13:01:33.015Z,0.80
2022-10-04T13:05:28.078Z,0.80
2022-10-04T13:09:39.461Z,1.00
2022-10-04T13:13:37.270Z,1.10
2022-10-04T13:17:46.565Z,0.80
2022-10-04T13:21:45.021Z,1.00
2022-10-04T13:25:32.733Z,0.60
2022-10-04T13:29:31.344Z,1.00
2022-10-04T13:33:23.855Z,0.50
2022-10-04T13:37:14.143Z,0.90
2022-10-04T13:41:21.985Z,0.50
2022-10-04T13:45:12.004Z,0.40
2022-10-04T13:49:14.118Z,0.60
2022-10-04T13:53:07.308Z,0.40
2022-10-04T13:57:04.947Z,1.40
2022-10-04T14:00:57.244Z,0.60
2022-10-04T14:04:55.290Z,3.00
2022-10-04T14:08:59.028Z,1.70
2022-10-04T14:13:14.731Z,1.70
2022-10-04T14:17:07.643Z,2.10
2022-10-04T14:21:23.780Z,1.50
2022-10-04T14:25:18.847Z,0.50
2022-10-04T14:33:08.753Z,2.50
2022-10-04T14:37:08.335Z,1.70
2022-10-04T14:41:01.723Z,1.50
2022-10-04T14:45:17.710Z,1.30
2022-10-04T14:49:20.148Z,1.20
2022-10-04T14:53:21.942Z,1.40
2022-10-04T14:57:18.411Z,1.30
2022-10-04T15:01:11.407Z,1.70
2022-10-04T15:05:10.104Z,1.80
2022-10-04T15:09:03.859Z,2.20
2022-10-04T15:13:11.016Z,1.30
2022-10-04T15:17:20.849Z,1.10
2022-10-04T15:21:41.538Z,1.40
2022-10-04T15:25:41.676Z,1.40
2022-10-04T15:29:41.736Z,1.60
2022-10-04T15:33:41.938Z,1.20
2022-10-04T15:37:42.926Z,1.30
2022-10-04T15:41:39.540Z,1.80
2022-10-04T15:45:50.030Z,1.90
2022-10-04T15:49:41.848Z,1.80
2022-10-04T15:53:51.425Z,1.60
2022-10-04T15:57:52.792Z,1.80
2022-10-04T16:02:06.048Z,1.50
2022-10-04T16:06:03.410Z,2.90
2022-10-04T16:10:19.425Z,5.60
2022-10-04T16:14:13.777Z,8.60
2022-10-04T16:18:17.593Z,7.10
2022-10-04T16:22:18.529Z,8.60
2022-10-04T16:26:28.444Z,14.20
2022-10-04T16:30:26.700Z,11.70
2022-10-04T16:34:26.899Z,8.20
2022-10-04T16:38:22.759Z,5.10
2022-10-04T16:42:18.248Z,9.90
2022-10-04T16:46:10.156Z,9.10
2022-10-04T16:50:04.330Z,10.30
2022-10-04T16:53:54.172Z,10.50
2022-10-04T16:57:55.895Z,12.60
2022-10-04T17:02:06.448Z,20.00
2022-10-04T17:06:10.201Z,22.80
2022-10-04T17:10:15.569Z,17.70
2022-10-04T17:14:13.054Z,28.60
2022-10-04T17:18:23.903Z,18.90
2022-10-04T17:22:39.157Z,15.70
2022-10-04T17:26:37.979Z,12.50
2022-10-04T17:30:47.945Z,11.40
2022-10-04T17:34:46.597Z,11.50
2022-10-04T17:38:50.963Z,10.30
2022-10-04T17:42:46.343Z,12.40
2022-10-04T17:46:41.457Z,18.40
2022-10-04T17:50:41.063Z,27.80
2022-10-04T17:54:31.878Z,18.40
2022-10-04T17:58:30.786Z,19.70
2022-10-04T18:02:53.734Z,15.90
2022-10-04T18:06:45.734Z,11.40
2022-10-04T18:10:31.609Z,4.40
2022-10-04T18:14:38.032Z,5.60
2022-10-04T18:18:32.262Z,2.10
2022-10-04T18:22:32.934Z,3.60
2022-10-04T18:26:24.222Z,3.20
2022-10-04T18:30:21.079Z,3.10
2022-10-04T18:34:16.839Z,2.10
2022-10-04T18:38:20.710Z,2.00
2022-10-04T18:42:27.039Z,19.60
2022-10-04T18:46:22.345Z,9.30
2022-10-04T19:30:08.674Z,3.20
2022-10-04T19:34:01.647Z,2.90
2022-10-04T19:37:56.727Z,3.50
2022-10-04T19:41:58.493Z,2.70
2022-10-04T19:45:57.144Z,3.80
2022-10-04T19:50:04.394Z,3.90
2022-10-04T19:54:02.894Z,5.80
2022-10-04T19:57:54.974Z,23.60
2022-10-04T20:01:53.503Z,23.20
2022-10-04T20:05:48.537Z,24.00
2022-10-04T20:09:44.607Z,8.40
2022-10-04T20:13:37.687Z,12.10
2022-10-04T21:03:46.337Z,6.60
2022-10-04T21:07:41.092Z,6.70
2022-10-04T21:11:45.165Z,7.20
2022-10-04T21:15:34.939Z,5.80
2022-10-04T21:19:27.185Z,5.40
2022-10-04T21:23:20.282Z,5.10
2022-10-04T21:27:16.342Z,5.90
2022-10-04T21:31:12.613Z,5.80
2022-10-04T21:35:05.105Z,9.00
2022-10-04T21:38:59.259Z,5.90
2022-10-04T21:42:52.516Z,6.10
2022-10-04T22:02:24.228Z,6.30
2022-10-04T22:06:16.414Z,6.40
2022-10-04T22:10:08.674Z,5.40
2022-10-04T22:14:02.931Z,4.30
2022-10-04T23:35:23.701Z,3.90
2022-10-04T23:39:16.727Z,3.40
2022-10-04T23:43:15.738Z,3.30
2022-10-04T23:47:08.583Z,2.30
2022-10-04T23:55:00.979Z,2.70
2022-10-04T23:58:53.653Z,12.40
